Terminal Aerodrome Forecast
Issued by NWS

Home | Current Version | Previous Version | Text Only | Print | Product List | Glossary On
Versions: 1 2 3 4 5 6 7 8 9 10 11 12 13 14 15 16 17 18 19 20 21 22 23 24 25 26 27 28 29 30 31 32 33
000
FTUS44 KFWD 171740
TAFGKY
TAF
KGKY 171740Z 1718/1818 36009KT P6SM VCSH OVC080
     FM172100 01007KT P6SM -RA SCT025 OVC050
     FM180200 02005KT 6SM -RA BR VCTS SCT015 OVC025CB
      TEMPO 1804/1807 4SM -TSRA BR OVC012CB
     FM180700 01008KT 3SM RA BR OVC008
      TEMPO 1808/1812 1SM -DZ BR OVC005
     FM181500 36008KT 6SM -DZ BR BKN015=

USA.gov is the U.S. government's official web portal to all federal, state and local government web resources and services.